MSC Carolina — 3ECV5 — position and weather

sailwx.info

Track history (hours):
 
Tides and Currents Weather Stations Pressure Air Temp Water Temp Dewpoint Dewpoint Depression Visibility Wind Speed Wind Dir Waves Ship Positions

MSC Carolina

Last reported at 2015-Mar-27 05:15 UTC. Time now 2015-Mar-27 08:17 UTC.
Position N 32°54' E 034°53'.

Length 275 m; draft 13.6 m.

Type: Ship (hazmat cat B). MMSI: 371475000.

Date/timePositionNaut miles runAvg speedWind from/ knotsBaromVisibWave heightAir tempDewpointWater temp
2015-Mar-27 05:15N 32°54' E 034°53'8 0.6
2015-Mar-26 16:33N 32°49' E 035°01'8 0.5
2015-Mar-26 01:26N 32°54' E 034°53'7 7.9
2015-Mar-26 00:33N 32°55' E 034°45'1110.8
2015-Mar-25 23:33N 32°57' E 034°33'2210.4
2015-Mar-25 21:29N 33°01' E 034°07'19 9.7
2015-Mar-25 19:31N 33°00' E 033°45'17 8.4
2015-Mar-25 17:33N 32°48' E 033°32'2010.0
2015-Mar-25 15:33N 32°29' E 033°23'13 9.7
2015-Mar-25 14:10N 32°17' E 033°15'6 9.1
2015-Mar-25 13:29N 32°13' E 033°11'22 9.1
2015-Mar-25 11:04N 31°56' E 032°54'8 9.1
2015-Mar-25 10:12N 31°50' E 032°48'18 9.2
2015-Mar-25 08:12N 31°39' E 032°30'33 9.0
2015-Mar-25 04:33N 31°08' E 032°19'44 8.7
2015-Mar-24 23:33N 30°24' E 032°22'  
Track history (hours):
 
Tides and Currents Weather Stations Pressure Air Temp Water Temp Dewpoint Dewpoint Depression Visibility Wind Speed Wind Dir Waves Ship Positions

MSC Carolina

Last reported at 2015-Mar-27 05:15 UTC. Time now 2015-Mar-27 08:17 UTC.
Position N 32°54' E 034°53'.

Length 275 m; draft 13.6 m.

Type: Ship (hazmat cat B). MMSI: 371475000.

Date/timePositionNaut miles runAvg speedWind from/ knotsBaromVisibWave heightAir tempDewpointWater temp
2015-Mar-27 05:15N 32°54' E 034°53'8 0.6
2015-Mar-26 16:33N 32°49' E 035°01'8 0.5
2015-Mar-26 01:26N 32°54' E 034°53'7 7.9
2015-Mar-26 00:33N 32°55' E 034°45'1110.8
2015-Mar-25 23:33N 32°57' E 034°33'2210.4
2015-Mar-25 21:29N 33°01' E 034°07'19 9.7
2015-Mar-25 19:31N 33°00' E 033°45'17 8.4
2015-Mar-25 17:33N 32°48' E 033°32'2010.0
2015-Mar-25 15:33N 32°29' E 033°23'13 9.7
2015-Mar-25 14:10N 32°17' E 033°15'6 9.1
2015-Mar-25 13:29N 32°13' E 033°11'22 9.1
2015-Mar-25 11:04N 31°56' E 032°54'8 9.1
2015-Mar-25 10:12N 31°50' E 032°48'18 9.2
2015-Mar-25 08:12N 31°39' E 032°30'33 9.0
2015-Mar-25 04:33N 31°08' E 032°19'44 8.7
2015-Mar-24 23:33N 30°24' E 032°22'  

Dump ship's entire track history